sensor_id;sensor_type;location;lat;lon;timestamp;P1;durP1;ratioP1;P2;durP2;ratioP2
49193;SDS011;35029;50.804;12.866;2023-12-04T00:00:08;19.90;;;12.70;;
49193;SDS011;35029;50.804;12.866;2023-12-04T00:02:38;20.90;;;11.00;;
49193;SDS011;35029;50.804;12.866;2023-12-04T00:05:04;19.57;;;10.83;;
49193;SDS011;35029;50.804;12.866;2023-12-04T00:07:30;18.83;;;11.83;;
49193;SDS011;35029;50.804;12.866;2023-12-04T00:09:56;20.13;;;11.60;;
49193;SDS011;35029;50.804;12.866;2023-12-04T00:12:21;19.33;;;11.87;;
49193;SDS011;35029;50.804;12.866;2023-12-04T00:14:49;18.37;;;11.17;;
49193;SDS011;35029;50.804;12.866;2023-12-04T00:17:14;18.10;;;10.67;;
49193;SDS011;35029;50.804;12.866;2023-12-04T00:19:40;17.67;;;10.67;;
49193;SDS011;35029;50.804;12.866;2023-12-04T00:22:06;20.17;;;11.00;;
49193;SDS011;35029;50.804;12.866;2023-12-04T00:24:32;18.63;;;11.13;;
49193;SDS011;35029;50.804;12.866;2023-12-04T00:26:57;18.77;;;12.07;;
49193;SDS011;35029;50.804;12.866;2023-12-04T00:29:23;18.10;;;11.73;;
49193;SDS011;35029;50.804;12.866;2023-12-04T00:31:49;18.13;;;10.83;;
49193;SDS011;35029;50.804;12.866;2023-12-04T00:34:15;15.97;;;9.97;;
49193;SDS011;35029;50.804;12.866;2023-12-04T00:36:41;17.10;;;9.77;;
49193;SDS011;35029;50.804;12.866;2023-12-04T00:39:06;18.40;;;10.67;;
49193;SDS011;35029;50.804;12.866;2023-12-04T00:41:32;15.97;;;9.27;;
49193;SDS011;35029;50.804;12.866;2023-12-04T00:43:57;16.90;;;9.83;;
49193;SDS011;35029;50.804;12.866;2023-12-04T00:46:26;16.00;;;8.93;;
49193;SDS011;35029;50.804;12.866;2023-12-04T00:48:52;14.97;;;9.63;;
49193;SDS011;35029;50.804;12.866;2023-12-04T00:51:17;19.83;;;11.27;;
49193;SDS011;35029;50.804;12.866;2023-12-04T00:53:43;19.13;;;10.80;;
49193;SDS011;35029;50.804;12.866;2023-12-04T00:56:09;20.70;;;10.40;;
49193;SDS011;35029;50.804;12.866;2023-12-04T00:58:35;14.67;;;9.73;;
49193;SDS011;35029;50.804;12.866;2023-12-04T01:01:01;18.00;;;10.27;;
49193;SDS011;35029;50.804;12.866;2023-12-04T01:03:27;16.50;;;10.43;;
49193;SDS011;35029;50.804;12.866;2023-12-04T01:05:53;20.73;;;10.37;;
49193;SDS011;35029;50.804;12.866;2023-12-04T01:08:19;20.23;;;11.63;;
49193;SDS011;35029;50.804;12.866;2023-12-04T01:10:45;20.37;;;10.23;;
49193;SDS011;35029;50.804;12.866;2023-12-04T01:13:10;19.27;;;10.83;;
49193;SDS011;35029;50.804;12.866;2023-12-04T01:15:37;16.13;;;9.90;;
49193;SDS011;35029;50.804;12.866;2023-12-04T01:18:03;18.03;;;9.97;;
49193;SDS011;35029;50.804;12.866;2023-12-04T01:20:29;15.67;;;9.93;;
49193;SDS011;35029;50.804;12.866;2023-12-04T01:22:54;16.60;;;10.30;;
49193;SDS011;35029;50.804;12.866;2023-12-04T01:25:20;15.47;;;9.33;;
49193;SDS011;35029;50.804;12.866;2023-12-04T01:27:45;19.00;;;11.13;;
49193;SDS011;35029;50.804;12.866;2023-12-04T01:30:11;13.57;;;9.20;;
49193;SDS011;35029;50.804;12.866;2023-12-04T01:32:39;15.33;;;8.67;;
49193;SDS011;35029;50.804;12.866;2023-12-04T01:35:04;16.80;;;10.13;;
49193;SDS011;35029;50.804;12.866;2023-12-04T01:37:31;14.70;;;8.87;;
49193;SDS011;35029;50.804;12.866;2023-12-04T01:39:57;16.50;;;9.83;;
49193;SDS011;35029;50.804;12.866;2023-12-04T01:42:22;16.27;;;8.70;;
49193;SDS011;35029;50.804;12.866;2023-12-04T01:44:47;17.73;;;9.43;;
49193;SDS011;35029;50.804;12.866;2023-12-04T01:47:14;13.53;;;8.40;;
49193;SDS011;35029;50.804;12.866;2023-12-04T01:49:39;13.23;;;8.50;;
49193;SDS011;35029;50.804;12.866;2023-12-04T01:52:06;13.47;;;8.37;;
49193;SDS011;35029;50.804;12.866;2023-12-04T01:54:31;12.03;;;7.53;;
49193;SDS011;35029;50.804;12.866;2023-12-04T01:56:57;13.70;;;7.97;;
49193;SDS011;35029;50.804;12.866;2023-12-04T01:59:24;13.07;;;7.73;;
49193;SDS011;35029;50.804;12.866;2023-12-04T02:01:51;9.90;;;6.37;;
49193;SDS011;35029;50.804;12.866;2023-12-04T02:04:20;12.13;;;7.20;;
49193;SDS011;35029;50.804;12.866;2023-12-04T02:06:46;11.17;;;6.77;;
49193;SDS011;35029;50.804;12.866;2023-12-04T02:09:12;11.90;;;6.63;;
49193;SDS011;35029;50.804;12.866;2023-12-04T02:11:40;10.43;;;6.47;;
49193;SDS011;35029;50.804;12.866;2023-12-04T02:14:06;11.10;;;6.40;;
49193;SDS011;35029;50.804;12.866;2023-12-04T02:16:32;9.50;;;6.33;;
49193;SDS011;35029;50.804;12.866;2023-12-04T02:19:10;9.40;;;5.47;;
49193;SDS011;35029;50.804;12.866;2023-12-04T02:24:02;9.07;;;6.10;;
49193;SDS011;35029;50.804;12.866;2023-12-04T02:26:28;10.00;;;5.77;;
49193;SDS011;35029;50.804;12.866;2023-12-04T02:29:01;9.50;;;5.73;;
49193;SDS011;35029;50.804;12.866;2023-12-04T02:31:36;7.60;;;5.17;;
49193;SDS011;35029;50.804;12.866;2023-12-04T02:34:06;10.43;;;5.00;;
49193;SDS011;35029;50.804;12.866;2023-12-04T02:36:35;8.47;;;5.37;;
49193;SDS011;35029;50.804;12.866;2023-12-04T02:39:02;6.80;;;4.23;;
49193;SDS011;35029;50.804;12.866;2023-12-04T02:41:29;7.90;;;4.73;;
49193;SDS011;35029;50.804;12.866;2023-12-04T02:43:55;8.53;;;5.67;;
49193;SDS011;35029;50.804;12.866;2023-12-04T02:46:20;9.47;;;5.07;;
49193;SDS011;35029;50.804;12.866;2023-12-04T02:48:46;7.23;;;4.80;;
49193;SDS011;35029;50.804;12.866;2023-12-04T02:51:12;7.10;;;4.50;;
49193;SDS011;35029;50.804;12.866;2023-12-04T02:53:38;6.77;;;4.07;;
49193;SDS011;35029;50.804;12.866;2023-12-04T02:56:03;5.53;;;3.60;;
49193;SDS011;35029;50.804;12.866;2023-12-04T02:58:29;6.47;;;4.27;;
49193;SDS011;35029;50.804;12.866;2023-12-04T03:00:55;5.43;;;3.70;;
49193;SDS011;35029;50.804;12.866;2023-12-04T03:03:20;9.33;;;5.83;;
49193;SDS011;35029;50.804;12.866;2023-12-04T03:05:47;9.57;;;4.90;;
49193;SDS011;35029;50.804;12.866;2023-12-04T03:08:16;6.03;;;4.10;;
49193;SDS011;35029;50.804;12.866;2023-12-04T03:10:41;5.17;;;3.50;;
49193;SDS011;35029;50.804;12.866;2023-12-04T03:13:07;5.70;;;3.10;;
49193;SDS011;35029;50.804;12.866;2023-12-04T03:15:32;6.17;;;3.80;;
49193;SDS011;35029;50.804;12.866;2023-12-04T03:17:58;6.40;;;4.27;;
49193;SDS011;35029;50.804;12.866;2023-12-04T03:20:26;7.13;;;3.77;;
49193;SDS011;35029;50.804;12.866;2023-12-04T03:22:52;6.27;;;3.93;;
49193;SDS011;35029;50.804;12.866;2023-12-04T03:25:18;5.57;;;3.40;;
49193;SDS011;35029;50.804;12.866;2023-12-04T03:27:43;8.00;;;4.37;;
49193;SDS011;35029;50.804;12.866;2023-12-04T03:30:09;6.57;;;4.07;;
49193;SDS011;35029;50.804;12.866;2023-12-04T03:32:35;5.60;;;3.67;;
49193;SDS011;35029;50.804;12.866;2023-12-04T03:35:00;11.03;;;5.00;;
49193;SDS011;35029;50.804;12.866;2023-12-04T03:37:26;7.70;;;4.27;;
49193;SDS011;35029;50.804;12.866;2023-12-04T03:39:52;7.83;;;4.17;;
49193;SDS011;35029;50.804;12.866;2023-12-04T03:42:17;7.60;;;4.77;;
49193;SDS011;35029;50.804;12.866;2023-12-04T03:44:43;9.47;;;4.73;;
49193;SDS011;35029;50.804;12.866;2023-12-04T03:47:08;9.43;;;3.93;;
49193;SDS011;35029;50.804;12.866;2023-12-04T03:49:34;7.23;;;4.70;;
49193;SDS011;35029;50.804;12.866;2023-12-04T03:51:59;6.57;;;4.43;;
49193;SDS011;35029;50.804;12.866;2023-12-04T03:54:25;10.47;;;5.23;;
49193;SDS011;35029;50.804;12.866;2023-12-04T03:56:50;10.90;;;4.57;;
49193;SDS011;35029;50.804;12.866;2023-12-04T03:59:16;10.23;;;5.10;;
49193;SDS011;35029;50.804;12.866;2023-12-04T04:01:42;8.30;;;5.20;;
49193;SDS011;35029;50.804;12.866;2023-12-04T04:04:07;7.27;;;4.50;;
49193;SDS011;35029;50.804;12.866;2023-12-04T04:06:33;7.93;;;5.40;;
49193;SDS011;35029;50.804;12.866;2023-12-04T04:08:59;16.30;;;8.30;;
49193;SDS011;35029;50.804;12.866;2023-12-04T04:11:25;8.63;;;5.63;;
49193;SDS011;35029;50.804;12.866;2023-12-04T04:13:51;9.10;;;5.40;;
49193;SDS011;35029;50.804;12.866;2023-12-04T04:16:16;9.27;;;4.93;;
49193;SDS011;35029;50.804;12.866;2023-12-04T04:18:42;7.07;;;4.40;;
49193;SDS011;35029;50.804;12.866;2023-12-04T04:21:09;7.57;;;5.03;;
49193;SDS011;35029;50.804;12.866;2023-12-04T04:23:34;7.27;;;4.70;;
49193;SDS011;35029;50.804;12.866;2023-12-04T04:26:01;8.10;;;4.53;;
49193;SDS011;35029;50.804;12.866;2023-12-04T04:28:26;7.90;;;5.13;;
49193;SDS011;35029;50.804;12.866;2023-12-04T04:30:52;9.33;;;4.77;;
49193;SDS011;35029;50.804;12.866;2023-12-04T04:33:17;6.77;;;5.03;;
49193;SDS011;35029;50.804;12.866;2023-12-04T04:35:43;6.77;;;4.70;;
49193;SDS011;35029;50.804;12.866;2023-12-04T04:38:09;7.73;;;5.00;;
49193;SDS011;35029;50.804;12.866;2023-12-04T04:40:34;8.00;;;4.87;;
49193;SDS011;35029;50.804;12.866;2023-12-04T04:43:00;9.13;;;5.47;;
49193;SDS011;35029;50.804;12.866;2023-12-04T04:45:25;8.10;;;5.20;;
49193;SDS011;35029;50.804;12.866;2023-12-04T04:47:51;7.50;;;4.77;;
49193;SDS011;35029;50.804;12.866;2023-12-04T04:50:16;7.47;;;5.20;;
49193;SDS011;35029;50.804;12.866;2023-12-04T04:52:42;8.00;;;5.13;;
49193;SDS011;35029;50.804;12.866;2023-12-04T04:55:07;8.10;;;5.17;;
49193;SDS011;35029;50.804;12.866;2023-12-04T04:57:33;8.13;;;5.23;;
49193;SDS011;35029;50.804;12.866;2023-12-04T04:59:59;8.17;;;5.07;;
49193;SDS011;35029;50.804;12.866;2023-12-04T05:02:24;10.27;;;5.67;;
49193;SDS011;35029;50.804;12.866;2023-12-04T05:04:50;11.43;;;7.07;;
49193;SDS011;35029;50.804;12.866;2023-12-04T05:07:15;13.90;;;7.80;;
49193;SDS011;35029;50.804;12.866;2023-12-04T05:09:41;9.40;;;5.67;;
49193;SDS011;35029;50.804;12.866;2023-12-04T05:12:06;10.50;;;6.27;;
49193;SDS011;35029;50.804;12.866;2023-12-04T05:14:32;11.53;;;6.57;;
49193;SDS011;35029;50.804;12.866;2023-12-04T05:16:58;15.37;;;8.47;;
49193;SDS011;35029;50.804;12.866;2023-12-04T05:19:23;22.77;;;9.93;;
49193;SDS011;35029;50.804;12.866;2023-12-04T05:21:49;18.17;;;10.10;;
49193;SDS011;35029;50.804;12.866;2023-12-04T05:24:15;19.57;;;10.13;;
49193;SDS011;35029;50.804;12.866;2023-12-04T05:26:40;20.57;;;10.17;;
49193;SDS011;35029;50.804;12.866;2023-12-04T05:29:06;20.13;;;10.00;;
49193;SDS011;35029;50.804;12.866;2023-12-04T05:31:31;26.50;;;10.07;;
49193;SDS011;35029;50.804;12.866;2023-12-04T05:33:57;19.03;;;8.90;;
49193;SDS011;35029;50.804;12.866;2023-12-04T05:36:22;14.87;;;8.67;;
49193;SDS011;35029;50.804;12.866;2023-12-04T05:38:48;18.23;;;9.30;;
49193;SDS011;35029;50.804;12.866;2023-12-04T05:41:13;15.37;;;8.30;;
49193;SDS011;35029;50.804;12.866;2023-12-04T05:43:39;14.87;;;7.27;;
49193;SDS011;35029;50.804;12.866;2023-12-04T05:46:05;12.23;;;6.63;;
49193;SDS011;35029;50.804;12.866;2023-12-04T05:48:30;13.23;;;6.87;;
49193;SDS011;35029;50.804;12.866;2023-12-04T05:50:56;10.47;;;6.13;;
49193;SDS011;35029;50.804;12.866;2023-12-04T05:53:21;10.20;;;5.80;;
49193;SDS011;35029;50.804;12.866;2023-12-04T05:55:47;8.80;;;4.93;;
49193;SDS011;35029;50.804;12.866;2023-12-04T05:58:12;8.13;;;5.07;;
49193;SDS011;35029;50.804;12.866;2023-12-04T06:00:38;7.20;;;5.33;;
49193;SDS011;35029;50.804;12.866;2023-12-04T06:03:04;7.73;;;4.50;;
49193;SDS011;35029;50.804;12.866;2023-12-04T06:05:30;6.00;;;3.93;;
49193;SDS011;35029;50.804;12.866;2023-12-04T06:07:58;6.53;;;4.10;;
49193;SDS011;35029;50.804;12.866;2023-12-04T06:10:24;7.97;;;4.40;;
49193;SDS011;35029;50.804;12.866;2023-12-04T06:12:50;7.77;;;4.87;;
49193;SDS011;35029;50.804;12.866;2023-12-04T06:15:16;8.93;;;4.60;;
49193;SDS011;35029;50.804;12.866;2023-12-04T06:17:43;7.50;;;4.97;;
49193;SDS011;35029;50.804;12.866;2023-12-04T06:20:09;11.53;;;5.30;;
49193;SDS011;35029;50.804;12.866;2023-12-04T06:22:37;9.83;;;5.37;;
49193;SDS011;35029;50.804;12.866;2023-12-04T06:25:03;8.33;;;4.80;;
49193;SDS011;35029;50.804;12.866;2023-12-04T06:27:29;8.33;;;5.43;;
49193;SDS011;35029;50.804;12.866;2023-12-04T06:29:56;8.93;;;4.83;;
49193;SDS011;35029;50.804;12.866;2023-12-04T06:32:42;7.67;;;5.33;;
49193;SDS011;35029;50.804;12.866;2023-12-04T06:35:11;13.27;;;5.87;;
49193;SDS011;35029;50.804;12.866;2023-12-04T06:37:40;9.57;;;5.70;;
49193;SDS011;35029;50.804;12.866;2023-12-04T06:40:06;10.47;;;5.70;;
49193;SDS011;35029;50.804;12.866;2023-12-04T06:42:36;10.87;;;5.60;;
49193;SDS011;35029;50.804;12.866;2023-12-04T06:45:02;10.10;;;5.57;;
49193;SDS011;35029;50.804;12.866;2023-12-04T06:47:33;11.90;;;5.97;;
49193;SDS011;35029;50.804;12.866;2023-12-04T06:50:04;11.18;;;6.30;;
49193;SDS011;35029;50.804;12.866;2023-12-04T06:52:33;10.40;;;6.33;;
49193;SDS011;35029;50.804;12.866;2023-12-04T06:55:00;13.10;;;6.03;;
49193;SDS011;35029;50.804;12.866;2023-12-04T06:57:28;13.73;;;6.07;;
49193;SDS011;35029;50.804;12.866;2023-12-04T06:59:54;10.70;;;7.10;;
49193;SDS011;35029;50.804;12.866;2023-12-04T07:02:28;12.23;;;6.60;;
49193;SDS011;35029;50.804;12.866;2023-12-04T07:04:55;14.27;;;6.10;;
49193;SDS011;35029;50.804;12.866;2023-12-04T07:07:21;13.40;;;7.43;;
49193;SDS011;35029;50.804;12.866;2023-12-04T07:09:52;11.48;;;7.35;;
49193;SDS011;35029;50.804;12.866;2023-12-04T07:12:19;19.87;;;9.70;;
49193;SDS011;35029;50.804;12.866;2023-12-04T07:14:45;16.87;;;8.27;;
49193;SDS011;35029;50.804;12.866;2023-12-04T07:17:11;11.57;;;6.90;;
49193;SDS011;35029;50.804;12.866;2023-12-04T07:19:40;6.53;;;3.37;;
49193;SDS011;35029;50.804;12.866;2023-12-04T07:22:31;3.80;;;2.70;;
49193;SDS011;35029;50.804;12.866;2023-12-04T07:24:58;5.43;;;2.87;;
49193;SDS011;35029;50.804;12.866;2023-12-04T07:27:27;4.30;;;3.03;;
49193;SDS011;35029;50.804;12.866;2023-12-04T07:29:55;4.13;;;3.23;;
49193;SDS011;35029;50.804;12.866;2023-12-04T07:32:23;6.17;;;2.97;;
49193;SDS011;35029;50.804;12.866;2023-12-04T07:34:51;4.37;;;3.23;;
49193;SDS011;35029;50.804;12.866;2023-12-04T07:37:19;4.87;;;3.20;;
49193;SDS011;35029;50.804;12.866;2023-12-04T07:39:46;4.00;;;2.80;;
49193;SDS011;35029;50.804;12.866;2023-12-04T07:42:13;7.23;;;3.13;;
49193;SDS011;35029;50.804;12.866;2023-12-04T07:44:40;6.30;;;3.40;;
49193;SDS011;35029;50.804;12.866;2023-12-04T07:47:07;5.20;;;3.70;;
49193;SDS011;35029;50.804;12.866;2023-12-04T07:49:33;4.00;;;2.83;;
49193;SDS011;35029;50.804;12.866;2023-12-04T07:52:01;5.60;;;3.57;;
49193;SDS011;35029;50.804;12.866;2023-12-04T07:54:33;5.85;;;3.75;;
49193;SDS011;35029;50.804;12.866;2023-12-04T07:56:59;5.67;;;3.17;;
49193;SDS011;35029;50.804;12.866;2023-12-04T07:59:24;5.07;;;3.20;;
49193;SDS011;35029;50.804;12.866;2023-12-04T08:01:51;5.67;;;3.50;;
49193;SDS011;35029;50.804;12.866;2023-12-04T08:04:16;5.83;;;3.67;;
49193;SDS011;35029;50.804;12.866;2023-12-04T08:06:42;6.50;;;4.20;;
49193;SDS011;35029;50.804;12.866;2023-12-04T08:09:08;4.37;;;3.37;;
49193;SDS011;35029;50.804;12.866;2023-12-04T08:11:35;4.13;;;2.70;;
49193;SDS011;35029;50.804;12.866;2023-12-04T08:14:02;4.03;;;3.07;;
49193;SDS011;35029;50.804;12.866;2023-12-04T08:16:28;3.97;;;3.03;;
49193;SDS011;35029;50.804;12.866;2023-12-04T08:18:55;4.47;;;3.30;;
49193;SDS011;35029;50.804;12.866;2023-12-04T08:21:21;4.97;;;3.50;;
49193;SDS011;35029;50.804;12.866;2023-12-04T08:23:47;5.80;;;2.83;;
49193;SDS011;35029;50.804;12.866;2023-12-04T08:26:12;6.57;;;2.83;;
49193;SDS011;35029;50.804;12.866;2023-12-04T08:28:38;3.37;;;2.50;;
49193;SDS011;35029;50.804;12.866;2023-12-04T08:31:09;4.23;;;3.00;;
49193;SDS011;35029;50.804;12.866;2023-12-04T08:33:35;3.60;;;2.90;;
49193;SDS011;35029;50.804;12.866;2023-12-04T08:36:01;4.77;;;2.60;;
49193;SDS011;35029;50.804;12.866;2023-12-04T08:38:27;3.90;;;2.63;;
49193;SDS011;35029;50.804;12.866;2023-12-04T08:41:12;4.17;;;3.20;;
49193;SDS011;35029;50.804;12.866;2023-12-04T08:43:39;4.60;;;3.23;;
49193;SDS011;35029;50.804;12.866;2023-12-04T08:46:06;4.87;;;2.40;;
49193;SDS011;35029;50.804;12.866;2023-12-04T08:48:33;5.07;;;2.70;;
49193;SDS011;35029;50.804;12.866;2023-12-04T08:51:07;4.23;;;2.97;;
49193;SDS011;35029;50.804;12.866;2023-12-04T08:53:36;5.23;;;3.07;;
49193;SDS011;35029;50.804;12.866;2023-12-04T08:56:02;3.87;;;1.90;;
49193;SDS011;35029;50.804;12.866;2023-12-04T08:58:29;5.07;;;2.50;;
49193;SDS011;35029;50.804;12.866;2023-12-04T09:00:54;5.07;;;2.80;;
49193;SDS011;35029;50.804;12.866;2023-12-04T09:03:21;4.63;;;2.93;;
49193;SDS011;35029;50.804;12.866;2023-12-04T09:05:50;4.50;;;2.60;;
49193;SDS011;35029;50.804;12.866;2023-12-04T09:08:17;3.00;;;2.53;;
49193;SDS011;35029;50.804;12.866;2023-12-04T09:10:46;3.53;;;2.30;;
49193;SDS011;35029;50.804;12.866;2023-12-04T09:13:13;5.77;;;2.93;;
49193;SDS011;35029;50.804;12.866;2023-12-04T09:15:40;3.93;;;2.80;;
49193;SDS011;35029;50.804;12.866;2023-12-04T09:18:05;4.23;;;2.73;;
49193;SDS011;35029;50.804;12.866;2023-12-04T09:20:31;3.83;;;2.90;;
49193;SDS011;35029;50.804;12.866;2023-12-04T09:22:56;3.47;;;2.67;;
49193;SDS011;35029;50.804;12.866;2023-12-04T09:25:22;3.43;;;2.80;;
49193;SDS011;35029;50.804;12.866;2023-12-04T09:27:47;4.43;;;2.60;;
49193;SDS011;35029;50.804;12.866;2023-12-04T09:30:13;3.63;;;2.47;;
49193;SDS011;35029;50.804;12.866;2023-12-04T09:32:39;3.23;;;2.57;;
49193;SDS011;35029;50.804;12.866;2023-12-04T09:35:06;3.77;;;2.50;;
49193;SDS011;35029;50.804;12.866;2023-12-04T09:37:32;4.03;;;2.40;;
49193;SDS011;35029;50.804;12.866;2023-12-04T09:39:58;3.50;;;2.63;;
49193;SDS011;35029;50.804;12.866;2023-12-04T09:42:25;3.67;;;2.25;;
49193;SDS011;35029;50.804;12.866;2023-12-04T09:44:53;5.90;;;2.95;;
49193;SDS011;35029;50.804;12.866;2023-12-04T09:47:19;5.47;;;3.25;;
49193;SDS011;35029;50.804;12.866;2023-12-04T09:49:48;3.92;;;2.58;;
49193;SDS011;35029;50.804;12.866;2023-12-04T09:52:18;7.70;;;2.90;;
49193;SDS011;35029;50.804;12.866;2023-12-04T09:54:45;3.95;;;2.90;;
49193;SDS011;35029;50.804;12.866;2023-12-04T09:57:11;4.60;;;3.22;;
49193;SDS011;35029;50.804;12.866;2023-12-04T09:59:38;4.70;;;3.07;;
49193;SDS011;35029;50.804;12.866;2023-12-04T10:02:04;3.63;;;2.70;;
49193;SDS011;35029;50.804;12.866;2023-12-04T10:04:31;3.20;;;2.60;;
49193;SDS011;35029;50.804;12.866;2023-12-04T10:06:58;4.00;;;2.50;;
49193;SDS011;35029;50.804;12.866;2023-12-04T10:09:23;6.07;;;2.53;;
49193;SDS011;35029;50.804;12.866;2023-12-04T10:11:52;2.72;;;2.28;;
49193;SDS011;35029;50.804;12.866;2023-12-04T10:14:18;4.78;;;2.53;;
49193;SDS011;35029;50.804;12.866;2023-12-04T10:16:45;4.50;;;2.95;;
49193;SDS011;35029;50.804;12.866;2023-12-04T10:19:14;3.33;;;2.55;;
49193;SDS011;35029;50.804;12.866;2023-12-04T10:21:55;3.33;;;2.15;;
49193;SDS011;35029;50.804;12.866;2023-12-04T10:24:27;3.78;;;2.75;;
49193;SDS011;35029;50.804;12.866;2023-12-04T10:26:55;4.18;;;2.92;;
49193;SDS011;35029;50.804;12.866;2023-12-04T10:29:22;3.43;;;2.63;;
49193;SDS011;35029;50.804;12.866;2023-12-04T10:31:48;4.37;;;2.90;;
49193;SDS011;35029;50.804;12.866;2023-12-04T10:34:20;4.30;;;3.10;;
49193;SDS011;35029;50.804;12.866;2023-12-04T10:36:46;3.88;;;3.05;;
49193;SDS011;35029;50.804;12.866;2023-12-04T10:39:12;5.07;;;2.90;;
49193;SDS011;35029;50.804;12.866;2023-12-04T10:41:38;4.63;;;2.93;;
49193;SDS011;35029;50.804;12.866;2023-12-04T10:44:04;4.97;;;3.20;;
49193;SDS011;35029;50.804;12.866;2023-12-04T10:46:30;5.33;;;3.73;;
49193;SDS011;35029;50.804;12.866;2023-12-04T10:48:56;4.90;;;3.17;;
49193;SDS011;35029;50.804;12.866;2023-12-04T10:51:24;5.63;;;3.17;;
49193;SDS011;35029;50.804;12.866;2023-12-04T10:53:50;4.53;;;3.20;;
49193;SDS011;35029;50.804;12.866;2023-12-04T10:57:00;5.82;;;3.67;;
49193;SDS011;35029;50.804;12.866;2023-12-04T10:59:12;5.95;;;3.30;;
49193;SDS011;35029;50.804;12.866;2023-12-04T11:01:45;6.63;;;3.50;;
49193;SDS011;35029;50.804;12.866;2023-12-04T11:04:16;4.43;;;2.78;;
49193;SDS011;35029;50.804;12.866;2023-12-04T11:09:39;6.47;;;3.17;;
49193;SDS011;35029;50.804;12.866;2023-12-04T11:12:07;6.20;;;3.40;;
49193;SDS011;35029;50.804;12.866;2023-12-04T11:14:42;4.93;;;3.13;;
49193;SDS011;35029;50.804;12.866;2023-12-04T11:17:10;6.45;;;3.65;;
49193;SDS011;35029;50.804;12.866;2023-12-04T11:22:25;5.17;;;3.53;;
49193;SDS011;35029;50.804;12.866;2023-12-04T11:24:51;7.57;;;3.70;;
49193;SDS011;35029;50.804;12.866;2023-12-04T11:27:17;5.15;;;3.45;;
49193;SDS011;35029;50.804;12.866;2023-12-04T11:29:49;4.65;;;3.50;;
49193;SDS011;35029;50.804;12.866;2023-12-04T11:32:16;6.10;;;3.88;;
49193;SDS011;35029;50.804;12.866;2023-12-04T11:34:49;6.97;;;3.97;;
49193;SDS011;35029;50.804;12.866;2023-12-04T11:37:17;6.25;;;3.70;;
49193;SDS011;35029;50.804;12.866;2023-12-04T11:39:45;6.75;;;4.47;;
49193;SDS011;35029;50.804;12.866;2023-12-04T11:42:11;6.30;;;3.72;;
49193;SDS011;35029;50.804;12.866;2023-12-04T11:44:40;6.53;;;4.40;;
49193;SDS011;35029;50.804;12.866;2023-12-04T11:47:06;7.47;;;4.10;;
49193;SDS011;35029;50.804;12.866;2023-12-04T11:49:32;4.68;;;3.20;;
49193;SDS011;35029;50.804;12.866;2023-12-04T11:52:01;6.57;;;3.35;;
49193;SDS011;35029;50.804;12.866;2023-12-04T11:54:36;4.95;;;3.35;;
49193;SDS011;35029;50.804;12.866;2023-12-04T11:57:33;5.75;;;3.45;;
49193;SDS011;35029;50.804;12.866;2023-12-04T12:02:40;3.40;;;2.50;;
49193;SDS011;35029;50.804;12.866;2023-12-04T12:05:11;5.85;;;3.13;;
49193;SDS011;35029;50.804;12.866;2023-12-04T12:07:37;4.45;;;2.80;;
49193;SDS011;35029;50.804;12.866;2023-12-04T12:10:03;4.07;;;2.85;;
49193;SDS011;35029;50.804;12.866;2023-12-04T12:12:29;6.05;;;3.20;;
49193;SDS011;35029;50.804;12.866;2023-12-04T12:14:56;3.28;;;2.88;;
49193;SDS011;35029;50.804;12.866;2023-12-04T12:17:22;3.88;;;2.45;;
49193;SDS011;35029;50.804;12.866;2023-12-04T12:19:47;4.25;;;2.50;;
49193;SDS011;35029;50.804;12.866;2023-12-04T12:22:13;3.63;;;2.50;;
49193;SDS011;35029;50.804;12.866;2023-12-04T12:24:39;3.03;;;2.47;;
49193;SDS011;35029;50.804;12.866;2023-12-04T12:27:05;5.25;;;3.38;;
49193;SDS011;35029;50.804;12.866;2023-12-04T12:29:31;4.47;;;2.72;;
49193;SDS011;35029;50.804;12.866;2023-12-04T12:31:56;8.70;;;5.57;;
49193;SDS011;35029;50.804;12.866;2023-12-04T12:34:22;11.77;;;5.53;;
49193;SDS011;35029;50.804;12.866;2023-12-04T12:36:47;17.27;;;9.68;;
49193;SDS011;35029;50.804;12.866;2023-12-04T12:39:13;18.25;;;10.63;;
49193;SDS011;35029;50.804;12.866;2023-12-04T12:41:46;11.32;;;6.78;;
49193;SDS011;35029;50.804;12.866;2023-12-04T12:44:13;7.40;;;4.55;;
49193;SDS011;35029;50.804;12.866;2023-12-04T12:46:40;3.38;;;2.17;;
49193;SDS011;35029;50.804;12.866;2023-12-04T12:49:05;3.22;;;2.50;;
49193;SDS011;35029;50.804;12.866;2023-12-04T12:51:31;2.88;;;2.30;;
49193;SDS011;35029;50.804;12.866;2023-12-04T12:53:57;3.47;;;2.22;;
49193;SDS011;35029;50.804;12.866;2023-12-04T12:56:23;3.10;;;2.30;;
49193;SDS011;35029;50.804;12.866;2023-12-04T12:58:50;4.28;;;2.28;;
49193;SDS011;35029;50.804;12.866;2023-12-04T13:01:15;3.60;;;2.33;;
49193;SDS011;35029;50.804;12.866;2023-12-04T13:03:41;3.40;;;2.20;;
49193;SDS011;35029;50.804;12.866;2023-12-04T13:06:10;5.10;;;2.17;;
49193;SDS011;35029;50.804;12.866;2023-12-04T13:08:36;3.05;;;2.33;;
49193;SDS011;35029;50.804;12.866;2023-12-04T13:11:02;3.25;;;2.33;;
49193;SDS011;35029;50.804;12.866;2023-12-04T13:13:29;3.25;;;2.28;;
49193;SDS011;35029;50.804;12.866;2023-12-04T13:15:57;3.13;;;2.22;;
49193;SDS011;35029;50.804;12.866;2023-12-04T13:18:22;4.00;;;2.50;;
49193;SDS011;35029;50.804;12.866;2023-12-04T13:20:48;3.45;;;2.20;;
49193;SDS011;35029;50.804;12.866;2023-12-04T13:23:13;4.10;;;2.10;;
49193;SDS011;35029;50.804;12.866;2023-12-04T13:25:39;5.50;;;2.55;;
49193;SDS011;35029;50.804;12.866;2023-12-04T13:28:05;4.82;;;2.70;;
49193;SDS011;35029;50.804;12.866;2023-12-04T13:30:31;3.28;;;2.83;;
49193;SDS011;35029;50.804;12.866;2023-12-04T13:32:58;4.22;;;3.00;;
49193;SDS011;35029;50.804;12.866;2023-12-04T13:35:24;5.22;;;2.95;;
49193;SDS011;35029;50.804;12.866;2023-12-04T13:37:49;4.40;;;3.20;;
49193;SDS011;35029;50.804;12.866;2023-12-04T13:40:20;4.85;;;3.50;;
49193;SDS011;35029;50.804;12.866;2023-12-04T13:42:46;5.93;;;3.90;;
49193;SDS011;35029;50.804;12.866;2023-12-04T13:45:30;4.60;;;2.88;;
49193;SDS011;35029;50.804;12.866;2023-12-04T13:47:56;5.10;;;2.53;;
49193;SDS011;35029;50.804;12.866;2023-12-04T13:50:22;3.50;;;2.50;;
49193;SDS011;35029;50.804;12.866;2023-12-04T13:52:48;2.95;;;2.28;;
49193;SDS011;35029;50.804;12.866;2023-12-04T13:55:21;3.67;;;2.50;;
49193;SDS011;35029;50.804;12.866;2023-12-04T13:58:02;3.58;;;2.35;;
49193;SDS011;35029;50.804;12.866;2023-12-04T14:00:36;3.25;;;2.40;;
49193;SDS011;35029;50.804;12.866;2023-12-04T14:03:02;3.45;;;2.53;;
49193;SDS011;35029;50.804;12.866;2023-12-04T14:05:33;4.93;;;3.25;;
49193;SDS011;35029;50.804;12.866;2023-12-04T14:07:59;4.82;;;2.95;;
49193;SDS011;35029;50.804;12.866;2023-12-04T14:10:26;5.35;;;3.00;;
49193;SDS011;35029;50.804;12.866;2023-12-04T14:12:53;4.03;;;2.80;;
49193;SDS011;35029;50.804;12.866;2023-12-04T14:15:19;3.17;;;2.83;;
49193;SDS011;35029;50.804;12.866;2023-12-04T14:17:47;5.47;;;3.05;;
49193;SDS011;35029;50.804;12.866;2023-12-04T14:20:13;5.47;;;3.47;;
49193;SDS011;35029;50.804;12.866;2023-12-04T14:22:42;4.88;;;3.42;;
49193;SDS011;35029;50.804;12.866;2023-12-04T14:25:08;6.13;;;3.35;;
49193;SDS011;35029;50.804;12.866;2023-12-04T14:27:34;4.70;;;3.05;;
49193;SDS011;35029;50.804;12.866;2023-12-04T14:30:01;5.03;;;3.28;;
49193;SDS011;35029;50.804;12.866;2023-12-04T14:32:29;5.03;;;3.33;;
49193;SDS011;35029;50.804;12.866;2023-12-04T14:34:54;3.95;;;2.95;;
49193;SDS011;35029;50.804;12.866;2023-12-04T14:37:20;6.88;;;4.30;;